Home > Products > Valid Products > MTR

000
SAUS44 KMAF 211326
MTRGDP
SPECI KGDP 211315Z AUTO 06016KT 1 1/2SM BR BKN002 OVC060 12/12 A3017
RMK AO2 T01170117





000
SAUS44 KMAF 211302
MTRGDP
METAR KGDP 211251Z AUTO 06016KT 1/2SM FG VV002 12/12 A3016 RMK AO2
SLP167 T01220117





000
SAUS44 KMAF 211254
MTR6R6
METAR K6R6 211253Z AUTO 08011KT 18/17 A3004 RMK AO1 SLP146 T01830167





000
SAUS44 KMAF 211231
MTRGDP
SPECI KGDP 211220Z AUTO 05015KT 1/4SM FG VV002 12/12 A3015 RMK AO2
T01220117 $





000
SAUS44 KMAF 211209
MTRGDP
SPECI KGDP 211158Z AUTO 06017KT 1/4SM FG VV001 12/12 A3015 RMK AO2
T01220122 $





000
SAUS44 KMAF 211204 COR
MTRGDP
METAR KGDP 211151Z AUTO 05017KT 1/4SM FG VV002 12/12 A3014 RMK AO2
RAE1055 SLP160 P0001 60002 70002 T01220122 10133 20122 55004 $





000
SAUS44 KMAF 211204 COR
MTRGDP
METAR KGDP 211151Z AUTO 05017KT 1/4SM FG VV002 12/12 A3014 RMK AO2
RAE1055 SLP160 P0001 60002 70002 T01220122 10133 20122 55004 $





000
SAUS44 KMAF 211203 COR
MTRGDP
METAR KGDP 211151Z AUTO 05017KT 1/4SM FG VV002 12/12 A3014 RMK AO2
RAE1055 SLP160 P0001 60002 70002 T01220122 10133 20122 55004 $





000
SAUS44 KMAF 211203 COR
MTRGDP
METAR KGDP 211151Z AUTO 05017KT 1/4SM FG VV002 12/12 A3014 RMK AO2
RAE1055 SLP160 P0001 60002 70002 T01220122 10133 20122 55004 $





000
SAUS44 KMAF 211202
MTRGDP
METAR KGDP 211151Z AUTO 05017KT 1/4SM FG VV002 12/12 A3014 RMK AO2
RAE1055 SLP160 P0001 60002 70002 T01220122 10133 20122 55004 $





000
SAUS44 KMAF 211202
MTRGDP
METAR KGDP 211151Z AUTO 05017KT 1/4SM FG VV002 12/12 A3014 RMK AO2
RAE1055 SLP160 P0001 60002 70002 T01220122 10133 20122 55004 $





000
SAUS44 KMAF 211154
MTR6R6
METAR K6R6 211153Z AUTO 07009KT 18/16 A3003 RMK AO1 SLP143 T01830161
10194 20178 53004





000
SAUS44 KMAF 211154
MTR6R6
METAR K6R6 211153Z AUTO 07009KT 18/16 A3003 RMK AO1 SLP143 T01830161
10194 20178 53004





000
SAUS44 KMAF 211102
MTRGDP
METAR KGDP 211051Z AUTO 04017KT 1/4SM -RA FG VV002 12/12 A3014 RMK
AO2 RAB20 SLP158 P0000 T01220122 $





000
SAUS44 KMAF 211102
MTRGDP
METAR KGDP 211051Z AUTO 04017KT 1/4SM -RA FG VV002 12/12 A3014 RMK
AO2 RAB20 SLP158 P0000 T01220122 $





000
SAUS44 KMAF 211054
MTR6R6
METAR K6R6 211053Z AUTO 04006KT 18/16 A3003 RMK AO1 SLP141 T01830161





000
SAUS44 KMAF 211054
MTR6R6
METAR K6R6 211053Z AUTO 04006KT 18/16 A3003 RMK AO1 SLP141 T01830161





000
SAUS44 KMAF 211051 COR
MTRGDP
SPECI KGDP 211038Z AUTO 04015KT 3/4SM -RA BR BKN003 OVC014 12/12
A3014 RMK AO2 VIS 1/2V1 3/4 RAB20 P0000 T01220122 $





000
SAUS44 KMAF 211051 COR
MTRGDP
SPECI KGDP 211038Z AUTO 04015KT 3/4SM -RA BR BKN003 OVC014 12/12
A3014 RMK AO2 VIS 1/2V1 3/4 RAB20 P0000 T01220122 $





000
SAUS44 KMAF 211050 COR
MTRGDP
SPECI KGDP 211038Z AUTO 04015KT 3/4SM -RA BR BKN003 OVC014 12/12
A3014 RMK AO2 VIS 1/2V1 3/4 RAB20 P0000 T01220122 $





000
SAUS44 KMAF 211050 COR
MTRGDP
SPECI KGDP 211038Z AUTO 04015KT 3/4SM -RA BR BKN003 OVC014 12/12
A3014 RMK AO2 VIS 1/2V1 3/4 RAB20 P0000 T01220122 $





000
SAUS44 KMAF 211049
MTRGDP
SPECI KGDP 211038Z AUTO 04015KT 3/4SM -RA BR BKN003 OVC014 12/12
A3014 RMK AO2 VIS 1/2V1 3/4 RAB20 P0000 T01220122 $





000
SAUS44 KMAF 211049
MTRGDP
SPECI KGDP 211038Z AUTO 04015KT 3/4SM -RA BR BKN003 OVC014 12/12
A3014 RMK AO2 VIS 1/2V1 3/4 RAB20 P0000 T01220122 $





000
SAUS44 KMAF 211033
MTRGDP
SPECI KGDP 211022Z AUTO 05017KT 1/4SM -RA FG VV002 12/12 A3014 RMK
AO2 RAB20 P0000 T01220122 $





000
SAUS44 KMAF 211033
MTRGDP
SPECI KGDP 211022Z AUTO 05017KT 1/4SM -RA FG VV002 12/12 A3014 RMK
AO2 RAB20 P0000 T01220122 $





000
SAUS44 KMAF 211011
MTRGDP
SPECI KGDP 211000Z AUTO 05013KT 1/4SM FG VV001 12/12 A3014 RMK AO2
T01220117





000
SAUS44 KMAF 211002
MTRGDP
METAR KGDP 210951Z AUTO 05014KT 1/4SM FG VV002 12/12 A3015 RMK AO2
RAB14E31 SLP157 P0000 T01220122





000
SAUS44 KMAF 211002
MTRGDP
METAR KGDP 210951Z AUTO 05014KT 1/4SM FG VV002 12/12 A3015 RMK AO2
RAB14E31 SLP157 P0000 T01220122





000
SAUS44 KMAF 210954
MTR6R6
METAR K6R6 210953Z AUTO 05004KT 18/17 A3002 RMK AO1 SLP138 T01830167





000
SAUS44 KMAF 210950
MTRGDP
SPECI KGDP 210939Z AUTO 05015KT 1/2SM FG VV002 12/12 A3015 RMK AO2
RAB14E31 P0000 T01220122





000
SAUS44 KMAF 210929
MTRGDP
SPECI KGDP 210918Z AUTO 07012KT 1/4SM -RA FG BKN002 BKN048 OVC065
12/12 A3015 RMK AO2 RAB14 P0000 T01220122





000
SAUS44 KMAF 210918 COR
MTRGDP
SPECI KGDP 210905Z AUTO 06010KT 3/4SM BR BKN002 BKN048 OVC060 12/12
A3016 RMK AO2 VIS 1/2V1 3/4 T01220122





000
SAUS44 KMAF 210917 COR
MTRGDP
SPECI KGDP 210905Z AUTO 06010KT 3/4SM BR BKN002 BKN048 OVC060 12/12
A3016 RMK AO2 VIS 1/2V1 3/4 T01220122





000
SAUS44 KMAF 210916
MTRGDP
SPECI KGDP 210905Z AUTO 06010KT 3/4SM BR BKN002 BKN048 OVC060 12/12
A3016 RMK AO2 VIS 1/2V1 3/4 T01220122





000
SAUS44 KMAF 210908
MTRGDP
SPECI KGDP 210857Z AUTO 08009KT 1 3/4SM BR SCT003 BKN048 OVC070
12/12 A3016 RMK AO2 VIS 3/4V4 T01220122





000
SAUS44 KMAF 210902
MTRGDP
METAR KGDP 210851Z AUTO 08010KT 3SM BR SCT003 BKN046 OVC070 12/12
A3016 RMK AO2 RAB19E29 SLP164 P0000 60001 T01220122 50004





000
SAUS44 KMAF 210857 COR
MTRGDP
SPECI KGDP 210844Z AUTO 08011KT 5SM BR SCT005 SCT044 OVC070 12/12
A3016 RMK AO2 RAB19E29 P0000 T01220122





000
SAUS44 KMAF 210856 COR
MTRGDP
SPECI KGDP 210844Z AUTO 08011KT 5SM BR SCT005 SCT044 OVC070 12/12
A3016 RMK AO2 RAB19E29 P0000 T01220122





000
SAUS44 KMAF 210855
MTRGDP
SPECI KGDP 210844Z AUTO 08011KT 5SM BR SCT005 SCT044 OVC070 12/12
A3016 RMK AO2 RAB19E29 P0000 T01220122





000
SAUS44 KMAF 210854
MTR6R6
METAR K6R6 210853Z AUTO 02006KT 18/17 A3002 RMK AO1 SLP138 T01830167
56004





000
SAUS44 KMAF 210842 COR
MTRGDP
SPECI KGDP 210829Z AUTO 08012KT 2 1/2SM BR BKN003 BKN010 OVC042
13/12 A3016 RMK AO2 RAB19E29 P0000 T01280122





000
SAUS44 KMAF 210841 COR
MTRGDP
SPECI KGDP 210829Z AUTO 08012KT 2 1/2SM BR BKN003 BKN010 OVC042
13/12 A3016 RMK AO2 RAB19E29 P0000 T01280122





000
SAUS44 KMAF 210840
MTRGDP
SPECI KGDP 210829Z AUTO 08012KT 2 1/2SM BR BKN003 BKN010 OVC042
13/12 A3016 RMK AO2 RAB19E29 P0000 T01280122





000
SAUS44 KMAF 210815
MTRGDP
SPECI KGDP 210804Z AUTO 08012KT 3SM BR OVC002 13/12 A3017 RMK AO2
T01280122





000
SAUS44 KMAF 210804 COR
MTRGDP
METAR KGDP 210751Z AUTO 06013KT 1 1/2SM BR BKN004 OVC046 13/12 A3017
RMK AO2 VIS 1V2 1/2 RAB07E29 SLP166 P0001 T01280122





000
SAUS44 KMAF 210803 COR
MTRGDP
METAR KGDP 210751Z AUTO 06013KT 1 1/2SM BR BKN004 OVC046 13/12 A3017
RMK AO2 VIS 1V2 1/2 RAB07E29 SLP166 P0001 T01280122





000
SAUS44 KMAF 210802
MTRGDP
METAR KGDP 210751Z AUTO 06013KT 1 1/2SM BR BKN004 OVC046 13/12 A3017
RMK AO2 VIS 1V2 1/2 RAB07E29 SLP166 P0001 T01280122





000
SAUS44 KMAF 210759
MTRGDP
SPECI KGDP 210748Z AUTO 07012G20KT 1 3/4SM BR BKN004 BKN007 OVC046
13/12 A3017 RMK AO2 RAB07E29 P0001





000
SAUS44 KMAF 210756 COR
MTRGDP
SPECI KGDP 210743Z AUTO 06012KT 2 1/2SM BR SCT004 BKN007 OVC047
13/12 A3017 RMK AO2 VIS 1V5 RAB07E29 P0001 T01280122





000
SAUS44 KMAF 210755 COR
MTRGDP
SPECI KGDP 210743Z AUTO 06012KT 2 1/2SM BR SCT004 BKN007 OVC047
13/12 A3017 RMK AO2 VIS 1V5 RAB07E29 P0001 T01280122





000
SAUS44 KMAF 210754
MTR6R6
METAR K6R6 210753Z AUTO 03006KT 18/17 A3003 RMK AO1 SLP141 T01780167





000
SAUS44 KMAF 210754
MTRGDP
SPECI KGDP 210743Z AUTO 06012KT 2 1/2SM BR SCT004 BKN007 OVC047
13/12 A3017 RMK AO2 VIS 1V5 RAB07E29 P0001 T01280122





000
SAUS44 KMAF 210702
MTRGDP
METAR KGDP 210651Z AUTO 06012KT 9SM BKN009 BKN012 OVC019 13/12 A3017
RMK AO2 PK WND 04028/0612 SLP165 T01330117 401610122





000
SAUS44 KMAF 210654
MTR6R6
METAR K6R6 210653Z AUTO 03006KT 19/17 A3002 RMK AO1 SLP140 T01890167





000
SAUS44 KMAF 210647
MTRGDP
SPECI KGDP 210636Z AUTO 06018KT 9SM BKN008 BKN016 OVC049 13/12 A3016
RMK AO2 PK WND 04028/0612 CIG 007V012 T01330117





000
SAUS44 KMAF 210634 COR
MTRGDP
SPECI KGDP 210621Z AUTO 05022G28KT 9SM BKN010 BKN013 BKN048 13/12
A3015 RMK AO2 PK WND 04028/0612 CIG 007V012 T01330117





000
SAUS44 KMAF 210633 COR
MTRGDP
SPECI KGDP 210621Z AUTO 05022G28KT 9SM BKN010 BKN013 BKN048 13/12
A3015 RMK AO2 PK WND 04028/0612 CIG 007V012 T01330117





000
SAUS44 KMAF 210632
MTRGDP
SPECI KGDP 210621Z AUTO 05022G28KT 9SM BKN010 BKN013 BKN048 13/12
A3015 RMK AO2 PK WND 04028/0612 CIG 007V012 T01330117





000
SAUS44 KMAF 210620
MTRGDP
SPECI KGDP 210609Z AUTO 05023KT 9SM SCT013 BKN047 13/12 A3014 RMK
AO2 PK WND 05027/0607 T01280117





000
SAUS44 KMAF 210602
MTRGDP
METAR KGDP 210551Z AUTO 05022KT 9SM BKN012 13/12 A3015 RMK AO2 PK
WND 05029/0511 SLP161 T01280117 10144 20122 50000





000
SAUS44 KMAF 210555
MTRGDP
SPECI KGDP 210544Z AUTO 05023KT 8SM FEW008 BKN013 13/12 A3015 RMK
AO2 PK WND 05029/0511 T01280117





000
SAUS44 KMAF 210554
MTR6R6
METAR K6R6 210553Z AUTO 03005KT 19/17 A3003 RMK AO1 SLP144 T01890167
10228 20183 402440178 58001





000
SAUS44 KMAF 210513
MTRGDP
SPECI KGDP 210502Z AUTO 04025KT 6SM BR FEW003 SCT009 BKN015 12/12
A3015 RMK AO2 PK WND 03029/0456 T01220117





000
SAUS44 KMAF 210504 COR
MTRGDP
METAR KGDP 210451Z AUTO 05025KT 6SM BR FEW003 SCT015 SCT075 12/12
A3015 RMK AO2 PK WND 03032/0428 SLP165 T01220117





000
SAUS44 KMAF 210503 COR
MTRGDP
METAR KGDP 210451Z AUTO 05025KT 6SM BR FEW003 SCT015 SCT075 12/12
A3015 RMK AO2 PK WND 03032/0428 SLP165 T01220117





000
SAUS44 KMAF 210502
MTRGDP
METAR KGDP 210451Z AUTO 05025KT 6SM BR FEW003 SCT015 SCT075 12/12
A3015 RMK AO2 PK WND 03032/0428 SLP165 T01220117





000
SAUS44 KMAF 210455
MTR6R6
METAR K6R6 210453Z AUTO 02005KT 18/16 A3005 RMK AO1 SLP149 T01830161





000
SAUS44 KMAF 210455
MTR6R6
METAR K6R6 210453Z AUTO 02005KT 18/16 A3005 RMK AO1 SLP149 T01830161





000
SAUS44 KMAF 210432
MTRGDP
SPECI KGDP 210420Z AUTO 04026KT 9SM FEW010 13/11 A3015 RMK AO2 PK
WND 04028/0420 T01280111





000
SAUS44 KMAF 210424
MTRGDP
SPECI KGDP 210413Z AUTO 05023KT 9SM BKN010 13/11 A3016 RMK AO2 PK
WND 04026/0409 T01280111





000
SAUS44 KMAF 210415
MTRGDP
SPECI KGDP 210404Z AUTO 05022KT 9SM SCT010 13/11 A3016 RMK AO2 PK
WND 04026/0353 T01280111





000
SAUS44 KMAF 210415
MTRGDP
SPECI KGDP 210404Z AUTO 05022KT 9SM SCT010 13/11 A3016 RMK AO2 PK
WND 04026/0353 T01280111





000
SAUS44 KMAF 210402
MTRGDP
METAR KGDP 210351Z AUTO 04024KT 9SM BKN010 13/11 A3015 RMK AO2 PK
WND 04029/0323 SLP162 T01280111





000
SAUS44 KMAF 210402
MTRGDP
METAR KGDP 210351Z AUTO 04024KT 9SM BKN010 13/11 A3015 RMK AO2 PK
WND 04029/0323 SLP162 T01280111





000
SAUS44 KMAF 210354
MTR6R6
METAR K6R6 210353Z AUTO 05004KT 19/16 A3005 RMK AO1 SLP149 T01890161





000
SAUS44 KMAF 210354
MTR6R6
METAR K6R6 210353Z AUTO 05004KT 19/16 A3005 RMK AO1 SLP149 T01890161





000
SAUS44 KMAF 210341 COR
MTRGDP
SPECI KGDP 210328Z AUTO 04025KT 10SM BKN010 13/11 A3015 RMK AO2 PK
WND 04029/0323 CIG 009V014 T01280111





000
SAUS44 KMAF 210341 COR
MTRGDP
SPECI KGDP 210328Z AUTO 04025KT 10SM BKN010 13/11 A3015 RMK AO2 PK
WND 04029/0323 CIG 009V014 T01280111





000
SAUS44 KMAF 210340 COR
MTRGDP
SPECI KGDP 210328Z AUTO 04025KT 10SM BKN010 13/11 A3015 RMK AO2 PK
WND 04029/0323 CIG 009V014 T01280111





000
SAUS44 KMAF 210340 COR
MTRGDP
SPECI KGDP 210328Z AUTO 04025KT 10SM BKN010 13/11 A3015 RMK AO2 PK
WND 04029/0323 CIG 009V014 T01280111





000
SAUS44 KMAF 210339
MTRGDP
SPECI KGDP 210328Z AUTO 04025KT 10SM BKN010 13/11 A3015 RMK AO2 PK
WND 04029/0323 CIG 009V014 T01280111





000
SAUS44 KMAF 210339
MTRGDP
SPECI KGDP 210328Z AUTO 04025KT 10SM BKN010 13/11 A3015 RMK AO2 PK
WND 04029/0323 CIG 009V014 T01280111





000
SAUS44 KMAF 210302
MTRGDP
METAR KGDP 210251Z AUTO 04025KT 10SM OVC009 13/11 A3014 RMK AO2 PK
WND 04030/0239 SLP160 T01330111 53004





000
SAUS44 KMAF 210302
MTRGDP
METAR KGDP 210251Z AUTO 04025KT 10SM OVC009 13/11 A3014 RMK AO2 PK
WND 04030/0239 SLP160 T01330111 53004





000
SAUS44 KMAF 210254
MTR6R6
METAR K6R6 210253Z AUTO 07005KT 19/16 A3004 RMK AO1 SLP145 T01940161
51015





000
SAUS44 KMAF 210254
MTR6R6
METAR K6R6 210253Z AUTO 07005KT 19/16 A3004 RMK AO1 SLP145 T01940161
51015





000
SAUS44 KMAF 210251
MTRGDP
SPECI KGDP 210240Z AUTO 04026KT 10SM BKN007 13/11 A3014 RMK AO2 PK
WND 04030/0239 T01280111





000
SAUS44 KMAF 210251
MTRGDP
SPECI KGDP 210240Z AUTO 04026KT 10SM BKN007 13/11 A3014 RMK AO2 PK
WND 04030/0239 T01280111





000
SAUS44 KMAF 210215
MTRGDP
SPECI KGDP 210204Z AUTO 04024KT 9SM SCT005 BKN075 12/11 A3014 RMK
AO2 PK WND 04029/0157 T01220111





000
SAUS44 KMAF 210215
MTRGDP
SPECI KGDP 210204Z AUTO 04024KT 9SM SCT005 BKN075 12/11 A3014 RMK
AO2 PK WND 04029/0157 T01220111





000
SAUS44 KMAF 210202
MTRGDP
METAR KGDP 210151Z AUTO 04024KT 9SM OVC004 12/11 A3014 RMK AO2 PK
WND 04033/0117 SLP162 T01220111





000
SAUS44 KMAF 210202
MTRGDP
METAR KGDP 210151Z AUTO 04024KT 9SM OVC004 12/11 A3014 RMK AO2 PK
WND 04033/0117 SLP162 T01220111





000
SAUS44 KMAF 210154
MTR6R6
METAR K6R6 210153Z AUTO 08004KT 19/16 A3003 RMK AO1 SLP143 T01940161





000
SAUS44 KMAF 210154
MTR6R6
METAR K6R6 210153Z AUTO 08004KT 19/16 A3003 RMK AO1 SLP143 T01940161





000
SAUS44 KMAF 210128
MTRGDP
SPECI KGDP 210117Z AUTO 04029KT 3SM BR OVC002 12/12 A3013 RMK AO2 PK
WND 04033/0117 T01220117





000
SAUS44 KMAF 210118
MTRGDP
SPECI KGDP 210107Z AUTO 05023G27KT 1 3/4SM BR OVC002 13/13 A3013 RMK
AO2 PK WND 05027/0103 T01330128





000
SAUS44 KMAF 210115
MTRGDP
SPECI KGDP 210104Z AUTO 05024G27KT 3SM BR OVC002 13/13 A3013 RMK AO2
PK WND 05027/0103 T01330128





000
SAUS44 KMAF 210107
MTRGDP
SPECI KGDP 210056Z AUTO 06019KT 2 1/2SM BR OVC002 13/13 A3014 RMK
AO2 T01330128





000
SAUS44 KMAF 210102
MTRGDP
METAR KGDP 210051Z AUTO 07019KT 3/4SM BR OVC002 13/13 A3013 RMK AO2
SLP156 T01330128





000
SAUS44 KMAF 210054
MTR6R6
METAR K6R6 210053Z AUTO 11007KT 22/16 A3001 RMK AO1 SLP134 T02170161





000
SAUS44 KMAF 210054
MTRGDP
SPECI KGDP 210043Z AUTO 08022KT 1SM BR BKN002 BKN007 OVC120 14/13
A3013 RMK AO2 VIS 1/2V2 T01390133





000
SAUS44 KMAF 210046
MTRGDP
SPECI KGDP 210035Z AUTO 08019KT 2 1/2SM BR BKN003 BKN007 BKN120
14/13 A3013 RMK AO2 T01390128





000
SAUS44 KMAF 210038
MTRGDP
SPECI KGDP 210027Z AUTO 08022KT 6SM BR FEW003 BKN007 BKN016 14/13
A3012 RMK AO2 T01390128





000
SAUS44 KMAF 210014
MTRGDP
SPECI KGDP 210003Z AUTO 06015KT 6SM BR SCT008 SCT014 14/12 A3013 RMK
AO2 T01440122





000
SAUS44 KMAF 210002
MTRGDP
METAR KGDP 202351Z AUTO 07014KT 6SM BR BKN008 BKN014 14/13 A3013 RMK
AO2 SLP153 T01440128 10161 20133 58001





000
SAUS44 KMAF 202357
MTRGDP
SPECI KGDP 202346Z AUTO 06011KT 6SM BR BKN008 BKN014 14/12 A3013 RMK
AO2





000
SAUS44 KMAF 202354
MTR6R6
METAR K6R6 202353Z AUTO 11008KT 23/16 A2999 RMK AO1 SLP127 T02280161
10244 20200 55000





000
SAUS44 KMAF 202341
MTRGDP
SPECI KGDP 202330Z AUTO 05013KT 7SM SCT009 BKN016 15/12 A3013 RMK
AO2 T01500122





000
SAUS44 KMAF 202326 COR
MTRGDP
SPECI KGDP 202308Z AUTO 07010KT 6SM BR BKN008 BKN014 OVC045 14/12
A3014 RMK AO2 CIG 008V012 T01440122





000
SAUS44 KMAF 202321 COR
MTRGDP
SPECI KGDP 202308Z AUTO 07010KT 6SM BR BKN008 BKN014 OVC045 14/12
A3014 RMK AO2 CIG 008V012 T01440122





000
SAUS44 KMAF 202320 COR
MTRGDP
SPECI KGDP 202308Z AUTO 07010KT 6SM BR BKN008 BKN014 OVC045 14/12
A3014 RMK AO2 CIG 008V012 T01440122





000
SAUS44 KMAF 202319
MTRGDP
SPECI KGDP 202308Z AUTO 07010KT 6SM BR BKN008 BKN014 OVC045 14/12
A3014 RMK AO2 CIG 008V012 T01440122





000
SAUS44 KMAF 202311
MTRGDP
SPECI KGDP 202301Z AUTO 07010KT 7SM SCT008 BKN011 OVC045 15/12 A3014
RMK AO2 T01500122





000
SAUS44 KMAF 202302
MTRGDP
METAR KGDP 202251Z AUTO 08011KT 7SM FEW011 SCT019 BKN029 15/12 A3014
RMK AO2 SLP155 T01500122





000
SAUS44 KMAF 202255
MTRGDP
SPECI KGDP 202244Z AUTO 07012KT 7SM SCT013 SCT023 BKN029 15/12 A3014
RMK AO2 T01500122





000
SAUS44 KMAF 202255
MTRGDP
SPECI KGDP 202244Z AUTO 07012KT 7SM SCT013 SCT023 BKN029 15/12 A3014
RMK AO2 T01500122





000
SAUS44 KMAF 202254
MTR6R6
METAR K6R6 202253Z AUTO 12010KT 23/16 A2999 RMK AO1 SLP126 T02330161





000
SAUS44 KMAF 202254
MTR6R6
METAR K6R6 202253Z AUTO 12010KT 23/16 A2999 RMK AO1 SLP126 T02330161





000
SAUS44 KMAF 202230
MTRGDP
SPECI KGDP 202219Z AUTO 05016KT 7SM FEW009 FEW015 15/12 A3013 RMK
AO2 T01500122





000
SAUS44 KMAF 202215
MTRGDP
SPECI KGDP 202204Z AUTO 06019KT 7SM FEW011 SCT015 16/12 A3013 RMK
AO2 T01560122





000
SAUS44 KMAF 202215
MTRGDP
SPECI KGDP 202204Z AUTO 06019KT 7SM FEW011 SCT015 16/12 A3013 RMK
AO2 T01560122





000
SAUS44 KMAF 202207
MTRGDP
SPECI KGDP 202156Z AUTO 06019KT 8SM SCT011 BKN015 16/12 A3013 RMK
AO2 T01560122





000
SAUS44 KMAF 202207
MTRGDP
SPECI KGDP 202156Z AUTO 06019KT 8SM SCT011 BKN015 16/12 A3013 RMK
AO2 T01560122





000
SAUS44 KMAF 202202
MTRGDP
METAR KGDP 202151Z AUTO 06017KT 8SM BKN009 BKN014 16/12 A3013 RMK
AO2 CIG 007V013 SLP149 T01610122





000
SAUS44 KMAF 202202
MTRGDP
METAR KGDP 202151Z AUTO 06017KT 8SM BKN009 BKN014 16/12 A3013 RMK
AO2 CIG 007V013 SLP149 T01610122





000
SAUS44 KMAF 202154
MTR6R6
METAR K6R6 202153Z AUTO 11012KT 24/16 A2999 RMK AO1 SLP127 T02440161





000
SAUS44 KMAF 202154
MTR6R6
METAR K6R6 202153Z AUTO 11012KT 24/16 A2999 RMK AO1 SLP127 T02440161





000
SAUS44 KMAF 202102
MTRGDP
METAR KGDP 202051Z AUTO 06016KT 7SM BKN008 BKN015 BKN110 16/13 A3013
RMK AO2 CIG 006V011 SLP150 T01560128 58013





000
SAUS44 KMAF 202054
MTR6R6
METAR K6R6 202053Z AUTO 08010KT 24/17 A2999 RMK AO1 SLP127 T02390167
57025





000
SAUS44 KMAF 202053
MTRGDP
SPECI KGDP 202042Z AUTO 07015KT 7SM BKN008 BKN015 OVC110 16/13 A3014
RMK AO2 CIG 006V011 T01560128





000
SAUS44 KMAF 202044
MTRGDP
SPECI KGDP 202033Z AUTO 07014KT 7SM SCT008 BKN015 BKN075 15/12 A3014
RMK AO2 T01500122





000
SAUS44 KMAF 202039
MTRGDP
SPECI KGDP 202028Z AUTO 07014KT 7SM BKN008 BKN011 OVC110 15/12 A3014
RMK AO2 CIG 005V009 T01500122





000
SAUS44 KMAF 202029
MTRGDP
SPECI KGDP 202018Z AUTO 06016KT 7SM SCT008 OVC075 15/12 A3014 RMK
AO2 T01500122





000
SAUS44 KMAF 202002
MTRGDP
METAR KGDP 201951Z AUTO 06020KT 6SM BR BKN007 BKN013 14/13 A3014 RMK
AO2 CIG 004V009 SLP158 T01440128





000
SAUS44 KMAF 201954
MTR6R6
METAR K6R6 201953Z AUTO 10010KT 22/18 A3001 RMK AO1 SLP137 T02220183





000
SAUS44 KMAF 201926
MTRGDP
SPECI KGDP 201915Z AUTO 07018KT 5SM BR BKN005 BKN013 OVC045 14/13
A3015 RMK AO2 CIG 003V009 T01440128





000
SAUS44 KMAF 201902
MTRGDP
METAR KGDP 201851Z AUTO 06020KT 7SM FEW006 BKN046 BKN055 15/13 A3017
RMK AO2 PK WND 06026/1828 SLP163 T01500128





000
SAUS44 KMAF 201854
MTR6R6
METAR K6R6 201853Z AUTO 12008KT 20/18 A3005 RMK AO1 SLP149 T02000183





000
SAUS44 KMAF 201842
MTRGDP
SPECI KGDP 201831Z AUTO 05023KT 6SM BR SCT004 SCT019 15/13 A3016 RMK
AO2 PK WND 06026/1828 T01500128





000
SAUS44 KMAF 201802
MTRGDP
METAR KGDP 201751Z AUTO 07021KT 4SM BR BKN004 BKN008 OVC014 13/13
A3017 RMK AO2 SLP167 60000 T01330133 10139 20122 58006





000
SAUS44 KMAF 201755
MTR6R6
METAR K6R6 201753Z AUTO 12007KT 20/18 A3007 RMK AO1 SLP156 T02000183
10200 20189 58001





000
SAUS44 KMAF 201752
MTRGDP
SPECI KGDP 201741Z AUTO 07019KT 4SM BR BKN004 BKN008 BKN014 14/14
A3018 RMK AO2 CIG 002V007 T01390139





000
SAUS44 KMAF 201730
MTRGDP
SPECI KGDP 201719Z AUTO 07022KT 2SM BR BKN002 OVC007 13/13 A3018 RMK
AO2 T01330133





000
SAUS44 KMAF 201718
MTRGDP
SPECI KGDP 201707Z AUTO 07019KT 1 1/4SM BR OVC002 13/13 A3019 RMK
AO2 T01330133





000
SAUS44 KMAF 201702
MTRGDP
METAR KGDP 201651Z AUTO 07018KT 1/4SM FG VV002 13/13 A3019 RMK AO2
SLP175 T01330133





000
SAUS44 KMAF 201657
MTRGDP
SPECI KGDP 201646Z AUTO 07016KT 1/2SM FG VV002 13/13 A3019 RMK AO2





000
SAUS44 KMAF 201654
MTR6R6
METAR K6R6 201653Z AUTO 12008KT 19/18 A3008 RMK AO1 SLP161 T01890183





000
SAUS44 KMAF 201629
MTRGDP
SPECI KGDP 201618Z AUTO 05009KT M1/4SM FG VV002 13/13 A3020 RMK AO2
T01330133





000
SAUS44 KMAF 201622
MTRGDP
SPECI KGDP 201610Z AUTO 04006KT 1/2SM FG BKN004 OVC065 13/13 A3019
RMK AO2 T01280128





000
SAUS44 KMAF 201607
MTRGDP
SPECI KGDP 201556Z AUTO 36007KT 1/4SM FG FEW003 BKN013 OVC060 13/13
A3020 RMK AO2 T01330133





000
SAUS44 KMAF 201602
MTRGDP
METAR KGDP 201551Z AUTO 07010KT 3SM BR FEW003 BKN023 OVC080 13/13
A3020 RMK AO2 PK WND 05028/1502 RAE30 PRESRR SLP174 P0000 T01330133





000
SAUS44 KMAF 201558 COR
MTRGDP
SPECI KGDP 201545Z AUTO 06016KT 3SM BR BKN020 BKN060 OVC070 13/13
A3018 RMK AO2 PK WND 05028/1502 RAE30 P0000





000
SAUS44 KMAF 201557 COR
MTRGDP
SPECI KGDP 201545Z AUTO 06016KT 3SM BR BKN020 BKN060 OVC070 13/13
A3018 RMK AO2 PK WND 05028/1502 RAE30 P0000





000
SAUS44 KMAF 201556
MTRGDP
SPECI KGDP 201545Z AUTO 06016KT 3SM BR BKN020 BKN060 OVC070 13/13
A3018 RMK AO2 PK WND 05028/1502 RAE30 P0000





000
SAUS44 KMAF 201554
MTR6R6
METAR K6R6 201553Z AUTO 08008KT 19/17 A3007 RMK AO1 SLP156 T01940172





000
SAUS44 KMAF 201553
MTRGDP
SPECI KGDP 201542Z AUTO 05017KT 1 1/2SM BR BKN016 BKN060 OVC080
13/13 A3017 RMK AO2 PK WND 05028/1502 RAE30 P0000 T01330133





000
SAUS44 KMAF 201548
MTRGDP
SPECI KGDP 201537Z AUTO 04022KT 1/2SM FG BKN006 BKN060 OVC075 13/13
A3016 RMK AO2 PK WND 05028/1502 RAE30 P0000 T01330133





000
SAUS44 KMAF 201502
MTRGDP
METAR KGDP 201451Z AUTO 05024KT M1/4SM -RA FG VV001 13/13 A3018 RMK
AO2 SLP168 P0000 60000 T01280128 53003





000
SAUS44 KMAF 201454
MTR6R6
METAR K6R6 201453Z AUTO 09007KT 19/17 A3007 RMK AO1 SLP157 T01890172
51016





000
SAUS44 KMAF 201402
MTRGDP
METAR KGDP 201351Z AUTO 07017KT M1/4SM -RA FG VV001 13/13 A3016 RMK
AO2 RAB29 SLP160 P0000 T01330133





000
SAUS44 KMAF 201354
MTR6R6
METAR K6R6 201353Z AUTO 07007KT 19/17 A3006 RMK AO1 SLP153 T01890172





000
SAUS44 KMAF 201325
MTRGDP
SPECI KGDP 201314Z AUTO 06013KT 1/4SM FG VV001 13/13 A3016 RMK AO2
T01330133





000
SAUS44 KMAF 201302
MTRGDP
METAR KGDP 201251Z AUTO 07014KT 1/4SM FG VV002 13/13 A3016 RMK AO2
RAE02 SLP161 P0000 T01330128





000
SAUS44 KMAF 201254
MTR6R6
METAR K6R6 201253Z AUTO 09006KT 19/18 A3004 RMK AO1 SLP142 T01940178





000
SAUS44 KMAF 201248
MTRGDP
SPECI KGDP 201237Z AUTO 07014KT 1/4SM FG BKN002 BKN075 OVC090 13/13
A3016 RMK AO2 RAE02 P0000 T01330128





000
SAUS44 KMAF 201241 COR
MTRGDP
SPECI KGDP 201229Z AUTO 07011KT 1/4SM FG SCT002 BKN070 OVC110 13/13
A3016 RMK AO2 RAE02 P0000 T01330128





000
SAUS44 KMAF 201240
MTRGDP
SPECI KGDP 201229Z AUTO 07011KT 1/4SM FG SCT002 BKN070 OVC110 13/13
A3016 RMK AO2 RAE02 P0000 T01330128





000
SAUS44 KMAF 201234
MTRGDP
SPECI KGDP 201223Z AUTO 08011KT 1 3/4SM BR FEW002 BKN090 OVC110
13/13 A3016 RMK AO2 RAE02 P0000 T01330128





000
SAUS44 KMAF 201211
MTRGDP
SPECI KGDP 201201Z AUTO 05005KT 3SM -RA BR SCT004 OVC110 13/13 A3017
RMK AO2 P0000 T01330128





000
SAUS44 KMAF 201204 COR
MTRGDP
METAR KGDP 201151Z AUTO 04008KT 3/4SM -RA BR BKN004 OVC110 13/13
A3017 RMK AO2 RAB18 SLP165 P0001 60001 70002 T01330128 10150 20128
53005





000
SAUS44 KMAF 201203 COR
MTRGDP
METAR KGDP 201151Z AUTO 04008KT 3/4SM -RA BR BKN004 OVC110 13/13
A3017 RMK AO2 RAB18 SLP165 P0001 60001 70002 T01330128 10150 20128
53005





000
SAUS44 KMAF 201202
MTRGDP
METAR KGDP 201151Z AUTO 04008KT 3/4SM -RA BR BKN004 OVC110 13/13
A3017 RMK AO2 RAB18 SLP165 P0001 60001 70002 T01330128 10150 20128
53005





000
SAUS44 KMAF 201154
MTR6R6
METAR K6R6 201153Z AUTO 04005KT 19/17 A3002 RMK AO1 SLP137 T01890172
10194 20178 53011





000
SAUS44 KMAF 201137 COR
MTRGDP
SPECI KGDP 201125Z AUTO 03004KT 3/4SM -RA BR BKN002 BKN016 OVC060
13/13 A3018 RMK AO2 RAB18 P0000 T01330128





000
SAUS44 KMAF 201136
MTRGDP
SPECI KGDP 201125Z AUTO 03004KT 3/4SM -RA BR BKN002 BKN016 OVC060
13/13 A3018 RMK AO2 RAB18 P0000 T01330128





000
SAUS44 KMAF 201131
MTRGDP
SPECI KGDP 201120Z AUTO 07004KT 2SM -RA BR BKN002 BKN016 OVC055
13/13 A3018 RMK AO2 RAB18 P0000 T01330128





000
SAUS44 KMAF 201117
MTRGDP
SPECI KGDP 201106Z AUTO 08005KT 3/4SM BR VV002 13/13 A3018 RMK AO2
T01330133





000
SAUS44 KMAF 201110
MTRGDP
SPECI KGDP 201059Z AUTO 08007KT 1/4SM FG VV002 13/13 A3017 RMK AO2
T01330133





000
SAUS44 KMAF 201102
MTRGDP
METAR KGDP 201051Z AUTO 08007KT 1/2SM FG VV002 13/13 A3017 RMK AO2
RAE41 SLP163 P0000 T01330133





000
SAUS44 KMAF 201054
MTR6R6
METAR K6R6 201053Z AUTO 06003KT 18/17 A3001 RMK AO1 SLP131 T01830172





000
SAUS44 KMAF 201054
MTR6R6
METAR K6R6 201053Z AUTO 06003KT 18/17 A3001 RMK AO1 SLP131 T01830172





000
SAUS44 KMAF 201052
MTRGDP
SPECI KGDP 201041Z AUTO 06012KT 1/2SM FG VV002 13/13 A3015 RMK AO2
RAE41 P0000 T01330133





000
SAUS44 KMAF 201034
MTRGDP
SPECI KGDP 201023Z AUTO 05016KT 1/4SM -RA FG VV002 13/13 A3014 RMK
AO2 P0000 T01330133





000
SAUS44 KMAF 201002
MTRGDP
METAR KGDP 200951Z AUTO 05013KT 3/4SM -RA BR BKN002 OVC007 14/13
A3014 RMK AO2 RAB51 SLP150 P0000 T01390128





000
SAUS44 KMAF 201002
MTRGDP
METAR KGDP 200951Z AUTO 05013KT 3/4SM -RA BR BKN002 OVC007 14/13
A3014 RMK AO2 RAB51 SLP150 P0000 T01390128





000
SAUS44 KMAF 200959
MTRGDP
SPECI KGDP 200948Z AUTO 05011KT 1 1/2SM BR OVC004 14/13 A3015 RMK
AO2





000
SAUS44 KMAF 200959
MTRGDP
SPECI KGDP 200948Z AUTO 05011KT 1 1/2SM BR OVC004 14/13 A3015 RMK
AO2





000
SAUS44 KMAF 200954
MTR6R6
METAR K6R6 200953Z AUTO 00000KT 18/17 A2999 RMK AO1 SLP125 T01780167





000
SAUS44 KMAF 200954
MTR6R6
METAR K6R6 200953Z AUTO 00000KT 18/17 A2999 RMK AO1 SLP125 T01780167





000
SAUS44 KMAF 200913
MTRGDP
SPECI KGDP 200902Z AUTO 00000KT 6SM BR BKN004 OVC008 14/13 A3015 RMK
AO2 CIG 002V007 T01390128





000
SAUS44 KMAF 200902
MTRGDP
METAR KGDP 200851Z AUTO 01003KT 8SM OVC006 14/12 A3015 RMK AO2 CIG
003V009 SLP153 T01390122 56006





000
SAUS44 KMAF 200854
MTR6R6
METAR K6R6 200853Z AUTO 05006KT 18/17 A2999 RMK AO1 SLP126 T01780167
55005





000
SAUS44 KMAF 200802
MTRGDP
METAR KGDP 200751Z AUTO 23003KT 7SM BKN005 BKN011 13/12 A3016 RMK
AO2 CIG 003V007 SLP156 T01330122





000
SAUS44 KMAF 200802
MTRGDP
METAR KGDP 200751Z AUTO 23003KT 7SM BKN005 BKN011 13/12 A3016 RMK
AO2 CIG 003V007 SLP156 T01330122





000
SAUS44 KMAF 200757
MTRGDP
SPECI KGDP 200746Z AUTO 00000KT 6SM BR BKN005 BKN011 14/13 A3016 RMK
AO2 CIG 003V007





000
SAUS44 KMAF 200754
MTR6R6
METAR K6R6 200753Z AUTO 06007KT 18/17 A2999 RMK AO1 SLP125 T01780167





000
SAUS44 KMAF 200754
MTR6R6
METAR K6R6 200753Z AUTO 06007KT 18/17 A2999 RMK AO1 SLP125 T01780167





000
SAUS44 KMAF 200736
MTRGDP
SPECI KGDP 200725Z AUTO 06006KT 6SM BR FEW003 14/13 A3016 RMK AO2
T01390128





000
SAUS44 KMAF 200736
MTRGDP
SPECI KGDP 200725Z AUTO 06006KT 6SM BR FEW003 14/13 A3016 RMK AO2
T01390128





000
SAUS44 KMAF 200702
MTRGDP
METAR KGDP 200651Z AUTO 05012KT 8SM CLR 14/12 A3015 RMK AO2 SLP151
T01390122 401890117





000
SAUS44 KMAF 200654
MTR6R6
METAR K6R6 200653Z AUTO 06005KT 18/16 A2999 RMK AO1 SLP127 T01780161





000
SAUS44 KMAF 200644
MTRGDP
SPECI KGDP 200633Z AUTO 05012KT 8SM SCT012 14/13 A3016 RMK AO2
T01390128





000
SAUS44 KMAF 200629
MTRGDP
SPECI KGDP 200618Z AUTO 06010KT 9SM BKN012 14/13 A3016 RMK AO2
T01440128





000
SAUS44 KMAF 200604 COR
MTRGDP
METAR KGDP 200551Z AUTO 03009KT 9SM OVC007 15/13 A3017 RMK AO2 PK
WND 04029/0456 CIG 005V010 SLP158 T01500128 10161 20144 53023





000
SAUS44 KMAF 200603 COR
MTRGDP
METAR KGDP 200551Z AUTO 03009KT 9SM OVC007 15/13 A3017 RMK AO2 PK
WND 04029/0456 CIG 005V010 SLP158 T01500128 10161 20144 53023





000
SAUS44 KMAF 200602
MTRGDP
METAR KGDP 200551Z AUTO 03009KT 9SM OVC007 15/13 A3017 RMK AO2 PK
WND 04029/0456 CIG 005V010 SLP158 T01500128 10161 20144 53023





000
SAUS44 KMAF 200554
MTR6R6
METAR K6R6 200553Z AUTO 10005KT 19/17 A3001 RMK AO1 SLP130 T01940167
10244 20194 402720183 58003





000
SAUS44 KMAF 200502
MTRGDP
METAR KGDP 200451Z AUTO 05026KT 9SM BKN008 OVC011 14/12 A3014 RMK
AO2 PK WND 06036/0356 CIG 006V011 SLP152 T01440122





000
SAUS44 KMAF 200454
MTR6R6
METAR K6R6 200453Z AUTO 10005KT 20/17 A3002 RMK AO1 SLP137 T02000172





000
SAUS44 KMAF 200444
MTRGDP
SPECI KGDP 200433Z AUTO 05027G31KT 9SM BKN013 15/12 A3014 RMK AO2 PK
WND 06036/0356 T01500117





000
SAUS44 KMAF 200402
MTRGDP
METAR KGDP 200351Z AUTO 06025G36KT 10SM CLR 16/12 A3011 RMK AO2 PK
WND 05038/0253 SLP144 T01560117





000
SAUS44 KMAF 200354
MTR6R6
METAR K6R6 200353Z AUTO 12009KT 21/17 A3002 RMK AO1 SLP136 T02110172





000
SAUS44 KMAF 200302
MTRGDP
METAR KGDP 200251Z AUTO 05032G38KT 10SM CLR 16/11 A3009 RMK AO2 PK
WND 05038/0246 SLP138 T01610111 53002





000
SAUS44 KMAF 200254
MTR6R6
METAR K6R6 200253Z AUTO 11009KT 21/17 A3002 RMK AO1 SLP136 T02110172
51008





000
SAUS44 KMAF 200202
MTRGDP
METAR KGDP 200151Z AUTO 05030G36KT 10SM CLR 16/11 A3008 RMK AO2 PK
WND 04036/0149 SLP134 T01610106





000
SAUS44 KMAF 200154
MTR6R6
METAR K6R6 200153Z AUTO 11011KT 22/17 A3002 RMK AO1 SLP135 T02220167





000
SAUS44 KMAF 200104 COR
MTRGDP
METAR KGDP 200051Z AUTO 05025KT 10SM FEW090 SCT110 16/11 A3007 RMK
AO2 PK WND 04035/0028 SLP134 T01560106





000
SAUS44 KMAF 200103 COR
MTRGDP
METAR KGDP 200051Z AUTO 05025KT 10SM FEW090 SCT110 16/11 A3007 RMK
AO2 PK WND 04035/0028 SLP134 T01560106





000
SAUS44 KMAF 200102
MTRGDP
METAR KGDP 200051Z AUTO 05025KT 10SM FEW090 SCT110 16/11 A3007 RMK
AO2 PK WND 04035/0028 SLP134 T01560106





000
SAUS44 KMAF 200054
MTR6R6
METAR K6R6 200053Z AUTO 12012KT 23/16 A3000 RMK AO1 SLP130 T02330161





000
SAUS44 KMAF 200002
MTRGDP
METAR KGDP 192351Z AUTO 05026KT 9SM FEW110 16/12 A3009 RMK AO2 PK
WND 04029/2319 SLP138 T01560122 10189 20156 58004





000
SAUS44 KMAF 200002
MTRGDP
METAR KGDP 192351Z AUTO 05026KT 9SM FEW110 16/12 A3009 RMK AO2 PK
WND 04029/2319 SLP138 T01560122 10189 20156 58004





000
SAUS44 KMAF 192354
MTR6R6
METAR K6R6 192353Z AUTO 10016G21KT 24/16 A2999 RMK AO1 SLP124
T02440161 10272 20239 55002





000
SAUS44 KMAF 192354
MTR6R6
METAR K6R6 192353Z AUTO 10016G21KT 24/16 A2999 RMK AO1 SLP124
T02440161 10272 20239 55002





000
SAUS44 KMAF 192302
MTRGDP
METAR KGDP 192251Z AUTO 05023KT 9SM SCT100 16/12 A3010 RMK AO2 PK
WND 05031/2230 SLP141 T01610122





000
SAUS44 KMAF 192302
MTRGDP
METAR KGDP 192251Z AUTO 05023KT 9SM SCT100 16/12 A3010 RMK AO2 PK
WND 05031/2230 SLP141 T01610122





000
SAUS44 KMAF 192254
MTR6R6
METAR K6R6 192253Z AUTO 10017G25KT 26/16 A2998 RMK AO1 SLP121
T02560161





000
SAUS44 KMAF 192254
MTR6R6
METAR K6R6 192253Z AUTO 10017G25KT 26/16 A2998 RMK AO1 SLP121
T02560161





000
SAUS44 KMAF 192202
MTRGDP
METAR KGDP 192151Z AUTO 07027KT 9SM OVC100 18/12 A3009 RMK AO2 PK
WND 06031/2147 SLP137 T01780117





000
SAUS44 KMAF 192154
MTR6R6
METAR K6R6 192153Z AUTO 12017KT 26/16 A2999 RMK AO1 SLP124 T02610161





000
SAUS44 KMAF 192102
MTRGDP
METAR KGDP 192051Z AUTO 05026KT 10SM BKN110 18/11 A3010 RMK AO2 PK
WND 06029/2048 SLP136 T01830111 58021





000
SAUS44 KMAF 192054
MTR6R6
METAR K6R6 192053Z AUTO 12015KT 26/17 A3000 RMK AO1 SLP127 T02560167
56025





000
SAUS44 KMAF 192002
MTRGDP
METAR KGDP 191951Z AUTO 07021KT 10SM FEW100 18/11 A3012 RMK AO2 PK
WND 07026/1939 SLP143 T01830111





000
SAUS44 KMAF 191954
MTR6R6
METAR K6R6 191953Z AUTO 12012G20KT 26/17 A3001 RMK AO1 SLP131
T02560172





000
SAUS44 KMAF 191902
MTRGDP
METAR KGDP 191851Z AUTO 08020KT 10SM CLR 19/11 A3016 RMK AO2 PK WND
08027/1811 SLP156 T01890111





000
SAUS44 KMAF 191854
MTR6R6
METAR K6R6 191853Z AUTO 10017G21KT 26/18 A3004 RMK AO1 SLP143
T02560178





000
SAUS44 KMAF 191802
MTRGDP
METAR KGDP 191751Z AUTO 05024KT 10SM SCT110 18/12 A3017 RMK AO2 PK
WND 05032/1716 SLP162 60001 T01830117 10183 20117 58002





000
SAUS44 KMAF 191754
MTR6R6
METAR K6R6 191753Z AUTO 10013KT 24/19 A3008 RMK AO1 SLP156 T02440189
10244 20211 58002





000
SAUS44 KMAF 191702
MTRGDP
METAR KGDP 191651Z AUTO 06025KT 9SM CLR 16/12 A3017 RMK AO2 PK WND
07031/1643 SLP164 T01610122





000
SAUS44 KMAF 191654
MTR6R6
METAR K6R6 191653Z AUTO 12011G18KT 23/18 A3009 RMK AO1 SLP160
T02330183





000
SAUS44 KMAF 191602
MTRGDP
METAR KGDP 191551Z AUTO 06018KT 7SM SCT095 BKN110 14/12 A3020 RMK
AO2 PK WND 06026/1456 SLP179 T01390122





000
SAUS44 KMAF 191554
MTR6R6
METAR K6R6 191553Z AUTO 12010G17KT 23/19 A3009 RMK AO1 SLP160
T02280194





000
SAUS44 KMAF 191514
MTRGDP
SPECI KGDP 191503Z AUTO 06023KT 3SM BR SCT001 BKN110 13/12 A3018 RMK
AO2 PK WND 06026/1456 T01280122





000
SAUS44 KMAF 191510 COR
MTRGDP
SPECI KGDP 191458Z AUTO 06024KT 2SM BR BKN001 13/12 A3018 RMK AO2 PK
WND 06026/1456 T01280117





000
SAUS44 KMAF 191509 COR
MTRGDP
SPECI KGDP 191458Z AUTO 06024KT 2SM BR BKN001 13/12 A3018 RMK AO2 PK
WND 06026/1456 T01280117





000
SAUS44 KMAF 191509
MTRGDP
SPECI KGDP 191458Z AUTO 06024KT 2SM BR BKN001 13/12 A3018 RMK AO2 PK
WND 06026/1456 T01280117





000
SAUS44 KMAF 191502 COR
MTRGDP
METAR KGDP 191451Z AUTO 06024KT 1 3/4SM BR SCT001 BKN100 13/12 A3018
RMK AO2 PK WND 05028/1401 RAE10 SLP170 P0000 60001 T01280122 55003





000
SAUS44 KMAF 191501
MTRGDP
METAR KGDP 191451Z AUTO 06024KT 1 3/4SM BR SCT001 BKN100 13/12 A3018
RMK AO2 PK WND 05028/1401 RAE10 SLP170 P0000 60001 T01280122 55003





000
SAUS44 KMAF 191500
MTRGDP
SPECI KGDP 191449Z AUTO 06024KT 1SM BR SCT001 BKN100 12/12 A3018 RMK
AO2 PK WND 05028/1401 RAE10 P0000





000
SAUS44 KMAF 191454
MTR6R6
METAR K6R6 191453Z AUTO 10013KT 21/19 A3008 RMK AO1 SLP159 T02110194
53014





000
SAUS44 KMAF 191452 COR
MTRGDP
SPECI KGDP 191440Z AUTO 06023KT 1/4SM FG BKN001 BKN100 12/12 A3018
RMK AO2 PK WND 05028/1401 RAE10 P0000 T01220117





000
SAUS44 KMAF 191451
MTRGDP
SPECI KGDP 191440Z AUTO 06023KT 1/4SM FG BKN001 BKN100 12/12 A3018
RMK AO2 PK WND 05028/1401 RAE10 P0000 T01220117





000
SAUS44 KMAF 191451 COR
MTRGDP
SPECI KGDP 191440Z AUTO 06023KT 1/4SM FG BKN001 BKN100 12/12 A3018
RMK AO2 PK WND 05028/1401 RAE10 P0000 T01220117





000
SAUS44 KMAF 191444 COR
MTRGDP
SPECI KGDP 191433Z AUTO 06025KT 3/4SM BR FEW001 BKN100 12/12 A3017
RMK AO2 PK WND 05028/1401 RAE10 P0000 T01220117





000
SAUS44 KMAF 191443
MTRGDP
SPECI KGDP 191433Z AUTO 06025KT 3/4SM BR FEW001 BKN100 12/12 A3017
RMK AO2 PK WND 05028/1401 RAE10 P0000 T01220117





000
SAUS44 KMAF 191442
MTRGDP
SPECI KGDP 191431Z AUTO 06025KT 2SM BR FEW001 BKN100 12/12 A3017 RMK
AO2 PK WND 05028/1401 RAE10 P0000 T01220117





000
SAUS44 KMAF 191402
MTRGDP
METAR KGDP 191351Z AUTO 05026KT 5SM -RA BR BKN070 OVC100 12/11 A3017
RMK AO2 PK WND 05030/1345 RAE25B44 SLP169 P0001 T01170111





000
SAUS44 KMAF 191354
MTR6R6
METAR K6R6 191353Z AUTO 09010KT 21/19 A3007 RMK AO1 SLP151 T02110194





000
SAUS44 KMAF 191302
MTRGDP
METAR KGDP 191251Z AUTO 06018KT 8SM -RA BKN075 OVC100 12/11 A3019
RMK AO2 RAE24B46 SLP177 P0000 T01170106





000
SAUS44 KMAF 191254
MTR6R6
METAR K6R6 191253Z AUTO 08008KT 21/19 A3005 RMK AO1 SLP144 T02110189





000
SAUS44 KMAF 191203 COR
MTRGDP
METAR KGDP 191151Z AUTO 04017KT 9SM -RA OVC075 12/11 A3019 RMK AO2
RAB11 SLP174 P0000 60001 70001 T01220106 10133 20117 53009





000
SAUS44 KMAF 191202
MTRGDP
METAR KGDP 191151Z AUTO 04017KT 9SM -RA OVC075 12/11 A3019 RMK AO2
RAB11 SLP174 P0000 60001 70001 T01220106 10133 20117 53009





000
SAUS44 KMAF 191154
MTR6R6
METAR K6R6 191153Z AUTO 10010KT 21/19 A3004 RMK AO1 SLP140 T02110189
10211 20183 53005





000
SAUS44 KMAF 191102
MTRGDP
METAR KGDP 191051Z AUTO 05020KT 10SM BKN080 OVC100 12/11 A3017 RMK
AO2 SLP168 T01220106





000
SAUS44 KMAF 191054
MTR6R6
METAR K6R6 191053Z AUTO 08008KT 20/17 A3003 RMK AO1 SLP136 T02000172





000
SAUS44 KMAF 191003 COR
MTRGDP
METAR KGDP 190951Z AUTO 05021KT 10SM SCT065 BKN080 OVC090 12/10
A3017 RMK AO2 PK WND 06031/0858 RAB0855E33 SLP167 P0001 T01170100





000
SAUS44 KMAF 191002
MTRGDP
METAR KGDP 190951Z AUTO 05021KT 10SM SCT065 BKN080 OVC090 12/10
A3017 RMK AO2 PK WND 06031/0858 RAB0855E33 SLP167 P0001 T01170100





000
SAUS44 KMAF 190954
MTR6R6
METAR K6R6 190953Z AUTO 05006KT 19/16 A3002 RMK AO1 SLP132 T01890156





000
SAUS44 KMAF 190954
MTR6R6
METAR K6R6 190953Z AUTO 05006KT 19/16 A3002 RMK AO1 SLP132 T01890156





000
SAUS44 KMAF 190902
MTRGDP
METAR KGDP 190851Z AUTO 06027KT 10SM BKN080 OVC110 13/09 A3016 RMK
AO2 PK WND 05033/0847 SLP159 60000 T01280094 58000





000
SAUS44 KMAF 190854
MTR6R6
METAR K6R6 190853Z AUTO 05005KT 19/14 A3003 RMK AO1 SLP135 T01890144
58006





000
SAUS44 KMAF 190803 COR
MTRGDP
METAR KGDP 190751Z AUTO 05028KT 10SM OVC100 13/09 A3017 RMK AO2 PK
WND 05038/0704 RAB02E34 SLP165 P0000 T01280094





000
SAUS44 KMAF 190802
MTRGDP
METAR KGDP 190751Z AUTO 05028KT 10SM OVC100 13/09 A3017 RMK AO2 PK
WND 05038/0704 RAB02E34 SLP165 P0000 T01280094





000
SAUS44 KMAF 190802 COR
MTRGDP
METAR KGDP 190751Z AUTO 05028KT 10SM OVC100 13/09 A3017 RMK AO2 PK
WND 05038/0704 RAB02E34 SLP165 P0000 T01280094





000
SAUS44 KMAF 190754
MTR6R6
METAR K6R6 190753Z AUTO 07005KT 19/14 A3004 RMK AO1 SLP140 T01940139





000
SAUS44 KMAF 190702
MTRGDP
METAR KGDP 190651Z AUTO 05027G37KT 10SM BKN110 13/09 A3018 RMK AO2
PK WND 04041/0601 SLP168 T01330089 401780100





000
SAUS44 KMAF 190654
MTR6R6
METAR K6R6 190653Z AUTO 05006KT 19/14 A3004 RMK AO1 SLP142 T01890139





000
SAUS44 KMAF 190603 COR
MTRGDP
METAR KGDP 190551Z AUTO 04035KT 10SM CLR 13/09 A3016 RMK AO2 PK WND
04040/0539 SLP161 T01280089 10150 20128 58003





000
SAUS44 KMAF 190602
MTRGDP
METAR KGDP 190551Z AUTO 04035KT 10SM CLR 13/09 A3016 RMK AO2 PK WND
04040/0539 SLP161 T01280089 10150 20128 58003





000
SAUS44 KMAF 190602 COR
MTRGDP
METAR KGDP 190551Z AUTO 04035KT 10SM CLR 13/09 A3016 RMK AO2 PK WND
04040/0539 SLP161 T01280089 10150 20128 58003





000
SAUS44 KMAF 190554
MTR6R6
METAR K6R6 190553Z AUTO 04007KT 19/14 A3005 RMK AO1 SLP144 T01890144
10272 20189 402940156 50000





000
SAUS44 KMAF 190502
MTRGDP
METAR KGDP 190451Z AUTO 04033G39KT 10SM FEW100 13/09 A3018 RMK AO2
PK WND 04040/0417 SLP168 T01330089





000
SAUS44 KMAF 190454
MTR6R6
METAR K6R6 190453Z AUTO 02007KT 19/14 A3005 RMK AO1 SLP148 T01940139





000
SAUS44 KMAF 190454
MTR6R6
METAR K6R6 190453Z AUTO 02007KT 19/14 A3005 RMK AO1 SLP148 T01940139





000
SAUS44 KMAF 190402
MTRGDP
METAR KGDP 190351Z AUTO 04031G38KT 10SM FEW100 14/09 A3018 RMK AO2
PK WND 04039/0345 SLP171 T01390089





000
SAUS44 KMAF 190402
MTRGDP
METAR KGDP 190351Z AUTO 04031G38KT 10SM FEW100 14/09 A3018 RMK AO2
PK WND 04039/0345 SLP171 T01390089





000
SAUS44 KMAF 190354
MTR6R6
METAR K6R6 190353Z AUTO 04006KT 20/13 A3005 RMK AO1 SLP150 T02000133





000
SAUS44 KMAF 190354
MTR6R6
METAR K6R6 190353Z AUTO 04006KT 20/13 A3005 RMK AO1 SLP150 T02000133





000
SAUS44 KMAF 190302
MTRGDP
METAR KGDP 190251Z AUTO 05030KT 10SM FEW100 14/09 A3017 RMK AO2 PK
WND 04037/0247 SLP169 T01440089 53009





000
SAUS44 KMAF 190254
MTR6R6
METAR K6R6 190253Z AUTO 11004KT 21/13 A3004 RMK AO1 SLP147 T02110133
52016





000
SAUS44 KMAF 190202
MTRGDP
METAR KGDP 190151Z AUTO 04032KT 10SM CLR 14/08 A3015 RMK AO2 PK WND
04037/0054 SLP166 T01440083





000
SAUS44 KMAF 190154
MTR6R6
METAR K6R6 190153Z AUTO 11004KT 23/13 A3003 RMK AO1 SLP141 T02280133





000
SAUS44 KMAF 190102
MTRGDP
METAR KGDP 190051Z AUTO 04035KT 10SM OVC100 14/08 A3013 RMK AO2 PK
WND 04038/0024 SLP162 T01440083





000
SAUS44 KMAF 190054
MTR6R6
METAR K6R6 190053Z AUTO 12007KT 25/14 A3001 RMK AO1 SLP134 T02500139





000
SAUS44 KMAF 190003 COR
MTRGDP
METAR KGDP 182351Z AUTO 06029KT 9SM BKN110 15/09 A3014 RMK AO2 PK
WND 06039/2334 SLP158 T01500089 10178 20150 50003





000
SAUS44 KMAF 190002
MTRGDP
METAR KGDP 182351Z AUTO 06029KT 9SM BKN110 15/09 A3014 RMK AO2 PK
WND 06039/2334 SLP158 T01500089 10178 20150 50003





000
SAUS44 KMAF 182354
MTR6R6
METAR K6R6 182353Z AUTO 12011KT 27/14 A2999 RMK AO1 SLP126 T02720139
10294 20250 55002





000
SAUS44 KMAF 182302
MTRGDP
METAR KGDP 182251Z AUTO 06028KT 9SM OVC110 15/09 A3014 RMK AO2 PK
WND 06039/2238 SLP158 T01500089





000
SAUS44 KMAF 182254
MTR6R6
METAR K6R6 182253Z AUTO 08010KT 28/13 A2999 RMK AO1 SLP123 T02780133





000
SAUS44 KMAF 182202
MTRGDP
METAR KGDP 182151Z AUTO 05033G37KT 9SM OVC110 16/09 A3014 RMK AO2 PK
WND 06038/2136 SLP154 T01560094





000
SAUS44 KMAF 182154
MTR6R6
METAR K6R6 182153Z AUTO 08010KT 29/13 A2999 RMK AO1 SLP124 T02890133





000
SAUS44 KMAF 182154
MTR6R6
METAR K6R6 182153Z AUTO 08010KT 29/13 A2999 RMK AO1 SLP124 T02890133





000
SAUS44 KMAF 182102
MTRGDP
METAR KGDP 182051Z AUTO 06035G39KT 10SM OVC100 17/09 A3013 RMK AO2
PK WND 05039/2051 SLP149 T01670094 58017





000
SAUS44 KMAF 182054
MTR6R6
METAR K6R6 182053Z AUTO 09011KT 28/14 A3000 RMK AO1 SLP128 T02830139
56022





000
SAUS44 KMAF 182002
MTRGDP
METAR KGDP 181951Z AUTO 06030G34KT 10SM OVC110 17/09 A3015 RMK AO2
PK WND 05037/1906 SLP154 T01670094





000
SAUS44 KMAF 182002
MTRGDP
METAR KGDP 181951Z AUTO 06030G34KT 10SM OVC110 17/09 A3015 RMK AO2
PK WND 05037/1906 SLP154 T01670094





000
SAUS44 KMAF 181954
MTR6R6
METAR K6R6 181953Z AUTO 06012G17KT 27/16 A3002 RMK AO1 SLP132
T02720156





000
SAUS44 KMAF 181954
MTR6R6
METAR K6R6 181953Z AUTO 06012G17KT 27/16 A3002 RMK AO1 SLP132
T02720156





000
SAUS44 KMAF 181902
MTRGDP
METAR KGDP 181851Z AUTO 06030G36KT 10SM BKN100 15/09 A3017 RMK AO2
PK WND 05038/1825 SLP161 T01500089





000
SAUS44 KMAF 181854
MTR6R6
METAR K6R6 181853Z AUTO 05010KT 27/16 A3005 RMK AO1 SLP142 T02720161





000
SAUS44 KMAF 181810 COR
MTRGDP
METAR KGDP 181751Z AUTO 06032KT 10SM SCT100 16/09 A3019 RMK AO2 PK
WND 05038/1709 SLP165 60000 T01560089 10167 20100 51003





000
SAUS44 KMAF 181809 COR
MTRGDP
METAR KGDP 181751Z AUTO 06032KT 10SM SCT100 16/09 A3019 RMK AO2 PK
WND 05038/1709 SLP165 60000 T01560089 10167 20100 51003





000
SAUS44 KMAF 181808 COR
MTRGDP
METAR KGDP 181751Z AUTO 06032KT 10SM SCT100 16/09 A3019 RMK AO2 PK
WND 05038/1709 SLP165 60000 T01560089 10167 20100 51003





000
SAUS44 KMAF 181803 COR
MTRGDP
METAR KGDP 181751Z AUTO 06032KT 10SM SCT100 16/09 A3019 RMK AO2 PK
WND 05038/1709 SLP165 60000 T01560089 10167 20100 51003





000
SAUS44 KMAF 181802
MTRGDP
METAR KGDP 181751Z AUTO 06032KT 10SM SCT100 16/09 A3019 RMK AO2 PK
WND 05038/1709 SLP165 60000 T01560089 10167 20100 51003





000
SAUS44 KMAF 181754
MTR6R6
METAR K6R6 181753Z AUTO 03010G16KT 26/16 A3007 RMK AO1 SLP151
T02560161 10256 20156 50001





000
SAUS44 KMAF 181702
MTRGDP
METAR KGDP 181651Z AUTO 06034G40KT 10SM OVC110 16/09 A3018 RMK AO2
PK WND 05041/1602 SLP164 T01560089





000
SAUS44 KMAF 181654
MTR6R6
METAR K6R6 181653Z AUTO 06009KT 23/17 A3008 RMK AO1 SLP156 T02280167





000
SAUS44 KMAF 181654
MTR6R6
METAR K6R6 181653Z AUTO 06009KT 23/17 A3008 RMK AO1 SLP156 T02280167





000
SAUS44 KMAF 181619
MTRGDP
SPECI KGDP 181608Z AUTO 05033G40KT 10SM BKN100 14/08 A3020 RMK AO2
PK WND 05041/1602 T01440078





000
SAUS44 KMAF 181610
MTRGDP
SPECI KGDP 181559Z AUTO 05034G40KT 2SM HZ BKN100 15/08 A3019 RMK AO2
PK WND 05040/1556 T01500078





000
SAUS44 KMAF 181610
MTRGDP
SPECI KGDP 181559Z AUTO 05034G40KT 2SM HZ BKN100 15/08 A3019 RMK AO2
PK WND 05040/1556 T01500078





000
SAUS44 KMAF 181602
MTRGDP
METAR KGDP 181551Z AUTO 05034KT 10SM BKN100 14/08 A3020 RMK AO2 PK
WND 05044/1512 SLP164 T01390078





000
SAUS44 KMAF 181602
MTRGDP
METAR KGDP 181551Z AUTO 05034KT 10SM BKN100 14/08 A3020 RMK AO2 PK
WND 05044/1512 SLP164 T01390078





000
SAUS44 KMAF 181554
MTR6R6
METAR K6R6 181553Z AUTO 05012KT 21/16 A3008 RMK AO1 SLP156 T02060161





000
SAUS44 KMAF 181554
MTR6R6
METAR K6R6 181553Z AUTO 05012KT 21/16 A3008 RMK AO1 SLP156 T02060161





000
SAUS44 KMAF 181503 COR
MTRGDP
METAR KGDP 181451Z AUTO 06035G40KT 7SM BKN110 12/06 A3018 RMK AO2 PK
WND 05043/1436 SLP162 60000 T01220061 53006





000
SAUS44 KMAF 181503 COR
MTRGDP
METAR KGDP 181451Z AUTO 06035G40KT 7SM BKN110 12/06 A3018 RMK AO2 PK
WND 05043/1436 SLP162 60000 T01220061 53006





000
SAUS44 KMAF 181502
MTRGDP
METAR KGDP 181451Z AUTO 06035G40KT 7SM BKN110 12/06 A3018 RMK AO2 PK
WND 05043/1436 SLP162 60000 T01220061 53006





000
SAUS44 KMAF 181502 COR
MTRGDP
METAR KGDP 181451Z AUTO 06035G40KT 7SM BKN110 12/06 A3018 RMK AO2 PK
WND 05043/1436 SLP162 60000 T01220061 53006





000
SAUS44 KMAF 181502 COR
MTRGDP
METAR KGDP 181451Z AUTO 06035G40KT 7SM BKN110 12/06 A3018 RMK AO2 PK
WND 05043/1436 SLP162 60000 T01220061 53006





000
SAUS44 KMAF 181502
MTRGDP
METAR KGDP 181451Z AUTO 06035G40KT 7SM BKN110 12/06 A3018 RMK AO2 PK
WND 05043/1436 SLP162 60000 T01220061 53006





000
SAUS44 KMAF 181454
MTR6R6
METAR K6R6 181453Z AUTO 04010KT 19/16 A3007 RMK AO1 SLP154 T01890161
53027





000
SAUS44 KMAF 181454
MTR6R6
METAR K6R6 181453Z AUTO 04010KT 19/16 A3007 RMK AO1 SLP154 T01890161
53027





000
SAUS44 KMAF 181452 COR
MTRGDP
SPECI KGDP 181440Z AUTO 06038G43KT 1 1/2SM HZ BKN110 13/06 A3016 RMK
AO2 PK WND 05043/1436 T01280056





000
SAUS44 KMAF 181452 COR
MTRGDP
SPECI KGDP 181440Z AUTO 06038G43KT 1 1/2SM HZ BKN110 13/06 A3016 RMK
AO2 PK WND 05043/1436 T01280056





000
SAUS44 KMAF 181451 COR
MTRGDP
SPECI KGDP 181440Z AUTO 06038G43KT 1 1/2SM HZ BKN110 13/06 A3016 RMK
AO2 PK WND 05043/1436 T01280056





000
SAUS44 KMAF 181451
MTRGDP
SPECI KGDP 181440Z AUTO 06038G43KT 1 1/2SM HZ BKN110 13/06 A3016 RMK
AO2 PK WND 05043/1436 T01280056





000
SAUS44 KMAF 181451
MTRGDP
SPECI KGDP 181440Z AUTO 06038G43KT 1 1/2SM HZ BKN110 13/06 A3016 RMK
AO2 PK WND 05043/1436 T01280056





000
SAUS44 KMAF 181451 COR
MTRGDP
SPECI KGDP 181440Z AUTO 06038G43KT 1 1/2SM HZ BKN110 13/06 A3016 RMK
AO2 PK WND 05043/1436 T01280056





000
SAUS44 KMAF 181402
MTRGDP
METAR KGDP 181351Z AUTO 05035KT 10SM FEW120 11/05 A3015 RMK AO2 PK
WND 06039/1337 SLP153 T01110050





000
SAUS44 KMAF 181354
MTR6R6
METAR K6R6 181353Z AUTO 04009KT 18/13 A3003 RMK AO1 SLP141 T01830133





    US Dept of Commerce
    National Oceanic and Atmospheric Administration
    National Weather Service
    1325 East West Highway
    Silver Spring, MD 20910
    Page Author: NWS Internet Services Team
Disclaimer
Information Quality
Credits
Glossary
Privacy Policy
Freedom of Information Act (FOIA)
About Us
Career Opportunities